Time;durP1;ratioP1;P1;durP2;ratioP2;P2;SDS_P1;SDS_P2;PMS_P1;PMS_P2;Temp;Humidity;BMP_temperature;BMP_pressure;BME280_temperature;BME280_humidity;BME280_pressure;Samples;Min_cycle;Max_cycle;Signal;HPM_P1;HPM_P2
2022/09/12 00:01:12;;;;;;;7.93;7.13;;;8.50;99.90;;;;;;5073059;28;20021;-66
2022/09/12 00:03:38;;;;;;;9.05;7.30;;;8.50;99.90;;;;;;5072744;28;20404;-66
2022/09/12 00:06:19;;;;;;;8.20;7.22;;;8.50;99.90;;;;;;5073472;28;20024;-66
2022/09/12 00:08:45;;;;;;;11.75;8.98;;;8.50;99.90;;;;;;5073107;28;20028;-66
2022/09/12 00:11:13;;;;;;;11.88;9.30;;;8.50;99.90;;;;;;5073179;28;20036;-66
2022/09/12 00:13:40;;;;;;;17.50;11.77;;;8.40;99.90;;;;;;5071067;28;20158;-66
2022/09/12 00:16:06;;;;;;;17.00;11.10;;;8.40;99.90;;;;;;5073096;28;20061;-67
2022/09/12 00:18:32;;;;;;;14.15;10.98;;;8.40;99.90;;;;;;5073079;28;20036;-67
2022/09/12 00:21:03;;;;;;;15.18;11.75;;;8.40;99.90;;;;;;5072893;28;20021;-68
2022/09/12 00:23:29;;;;;;;14.95;10.88;;;8.40;99.90;;;;;;5075441;28;20060;-68
2022/09/12 00:25:55;;;;;;;14.93;11.35;;;8.40;99.90;;;;;;5076903;28;20032;-68
2022/09/12 00:28:20;;;;;;;16.25;12.13;;;8.40;99.90;;;;;;5076862;28;20029;-67
2022/09/12 00:30:49;;;;;;;20.63;12.60;;;8.30;99.90;;;;;;5076573;28;20078;-67
2022/09/12 00:33:16;;;;;;;16.35;12.48;;;8.40;99.90;;;;;;5076680;28;20476;-67
2022/09/12 00:35:51;;;;;;;14.45;11.82;;;8.30;99.90;;;;;;5076457;28;20082;-68
2022/09/12 00:38:18;;;;;;;14.00;11.38;;;8.30;99.90;;;;;;5077226;28;20104;-68
2022/09/12 00:40:44;;;;;;;12.65;10.77;;;8.30;99.90;;;;;;5076421;28;20047;-67
2022/09/12 00:43:28;;;;;;;14.35;11.48;;;8.30;99.90;;;;;;5076200;28;20401;-67
2022/09/12 00:45:54;;;;;;;16.63;11.45;;;8.30;99.90;;;;;;5076532;28;20085;-67
2022/09/12 00:48:34;;;;;;;16.38;11.63;;;8.30;99.90;;;;;;5075716;28;20032;-67
2022/09/12 00:51:00;;;;;;;12.93;11.10;;;8.20;99.90;;;;;;5076492;28;20029;-67
2022/09/12 00:53:26;;;;;;;14.32;10.57;;;8.20;99.90;;;;;;5076056;28;20027;-67
2022/09/12 00:55:55;;;;;;;11.80;10.52;;;8.10;99.90;;;;;;5076156;28;20020;-67
2022/09/12 00:58:30;;;;;;;13.13;10.55;;;8.10;99.90;;;;;;5076034;28;20024;-67
2022/09/12 01:00:57;;;;;;;12.02;10.05;;;8.10;99.90;;;;;;5075358;28;20008;-68
2022/09/12 01:03:25;;;;;;;10.18;9.00;;;8.10;99.90;;;;;;5076227;28;20426;-68
2022/09/12 01:05:58;;;;;;;8.93;8.02;;;8.10;99.90;;;;;;5076190;28;20036;-68
2022/09/12 01:08:26;;;;;;;10.27;7.75;;;8.20;99.90;;;;;;5076121;28;20384;-68
2022/09/12 01:10:51;;;;;;;8.70;7.80;;;8.20;99.90;;;;;;5075343;28;20484;-67
2022/09/12 01:13:17;;;;;;;8.65;7.78;;;8.10;99.90;;;;;;5076090;28;20058;-67
2022/09/12 01:15:43;;;;;;;10.85;9.75;;;8.10;99.90;;;;;;5075952;28;20020;-67
2022/09/12 01:18:22;;;;;;;9.05;8.15;;;8.10;99.90;;;;;;5075844;28;20486;-68
2022/09/12 01:20:50;;;;;;;9.15;8.07;;;8.10;99.90;;;;;;5076233;28;20046;-68
2022/09/12 01:23:40;;;;;;;9.55;8.50;;;8.10;99.90;;;;;;5075559;28;20078;-68
2022/09/12 01:26:23;;;;;;;10.00;8.30;;;8.10;99.90;;;;;;5075065;28;20491;-68
2022/09/12 01:29:20;;;;;;;9.50;7.63;;;8.00;99.90;;;;;;5075665;28;20051;-68
2022/09/12 01:32:02;;;;;;;9.65;8.30;;;7.90;99.90;;;;;;5075719;28;20551;-68
2022/09/12 01:34:48;;;;;;;14.57;9.13;;;7.80;99.90;;;;;;5074864;28;20028;-68
2022/09/12 01:37:40;;;;;;;10.77;9.07;;;7.80;99.90;;;;;;5075397;28;20032;-66
2022/09/12 01:40:20;;;;;;;15.10;9.82;;;7.70;99.90;;;;;;5074710;28;20028;-66
2022/09/12 01:42:52;;;;;;;13.07;10.38;;;7.70;99.90;;;;;;5075523;28;20027;-66
2022/09/12 01:45:27;;;;;;;14.45;10.07;;;7.70;99.90;;;;;;5075200;28;20025;-66
2022/09/12 01:47:58;;;;;;;14.73;9.68;;;7.60;99.90;;;;;;5075184;28;20028;-67
2022/09/12 01:50:28;;;;;;;17.50;11.52;;;7.60;99.90;;;;;;5075235;28;20067;-67
2022/09/12 01:52:57;;;;;;;18.95;10.45;;;7.50;99.90;;;;;;5073634;28;20028;-67
2022/09/12 01:55:39;;;;;;;15.73;9.40;;;7.50;99.90;;;;;;5075224;28;20456;-66
2022/09/12 01:58:14;;;;;;;18.75;10.55;;;7.50;99.90;;;;;;5075431;28;20107;-66
2022/09/12 02:01:01;;;;;;;21.83;10.25;;;7.50;99.90;;;;;;5074353;28;20028;-66
2022/09/12 02:03:32;;;;;;;14.30;9.32;;;7.40;99.90;;;;;;5074726;28;20029;-66
2022/09/12 02:06:06;;;;;;;13.25;10.60;;;7.40;99.90;;;;;;5075131;28;20020;-66
2022/09/12 02:08:37;;;;;;;12.77;9.98;;;7.40;99.90;;;;;;5074231;28;20069;-66
2022/09/12 02:11:07;;;;;;;20.38;10.90;;;7.40;99.90;;;;;;5075166;28;20484;-66
2022/09/12 02:13:43;;;;;;;18.70;11.90;;;7.40;99.90;;;;;;5074924;28;20032;-66
2022/09/12 02:16:14;;;;;;;20.13;9.75;;;7.30;99.90;;;;;;5074075;28;20480;-66
2022/09/12 02:18:45;;;;;;;16.67;10.25;;;7.40;99.90;;;;;;5074737;28;20032;-66
2022/09/12 02:21:11;;;;;;;12.82;9.73;;;7.40;99.90;;;;;;5074639;28;20108;-66
2022/09/12 02:23:42;;;;;;;11.07;9.88;;;7.40;99.90;;;;;;5074520;28;20048;-67
2022/09/12 02:26:17;;;;;;;10.57;9.27;;;7.40;99.90;;;;;;5074633;28;20032;-67
2022/09/12 02:28:44;;;;;;;10.48;9.05;;;7.40;99.90;;;;;;5073999;28;20024;-67
2022/09/12 02:31:36;;;;;;;12.68;9.98;;;7.40;99.90;;;;;;5074209;28;20074;-67
2022/09/12 02:34:16;;;;;;;11.80;9.75;;;7.50;99.90;;;;;;5074429;28;20024;-67
2022/09/12 02:36:50;;;;;;;14.13;9.60;;;7.50;99.90;;;;;;5074447;28;20177;-67
2022/09/12 02:39:20;;;;;;;17.90;11.35;;;7.40;99.90;;;;;;5105161;22;20187;-69
2022/09/12 02:41:49;;;;;;;20.67;11.15;;;7.50;99.90;;;;;;5034122;28;20393;-70
2022/09/12 02:44:14;;;;;;;11.85;10.02;;;7.50;99.90;;;;;;5033847;28;20029;-69
2022/09/12 02:46:43;;;;;;;16.08;11.02;;;7.50;99.90;;;;;;5013766;28;20106;-70
2022/09/12 02:49:09;;;;;;;15.43;11.60;;;7.50;99.90;;;;;;5014167;28;20493;-69
2022/09/12 02:51:35;;;;;;;16.33;11.18;;;7.50;99.90;;;;;;5014780;28;20026;-69
2022/09/12 02:54:01;;;;;;;18.17;12.07;;;7.50;99.90;;;;;;5014676;28;20026;-70
2022/09/12 02:56:29;;;;;;;12.18;10.50;;;7.50;99.90;;;;;;5014716;28;20049;-69
2022/09/12 02:59:04;;;;;;;14.05;11.35;;;7.50;99.90;;;;;;5013953;28;20084;-69
2022/09/12 03:01:48;;;;;;;16.27;12.07;;;7.40;99.90;;;;;;5015173;28;20497;-70
2022/09/12 03:04:26;;;;;;;20.60;11.23;;;7.40;99.90;;;;;;5015190;28;20030;-70
2022/09/12 03:07:19;;;;;;;11.88;10.20;;;7.40;99.90;;;;;;5014718;28;20478;-70
2022/09/12 03:09:48;;;;;;;16.73;9.95;;;7.40;99.90;;;;;;5014540;28;20041;-69
2022/09/12 03:12:24;;;;;;;13.95;10.93;;;7.30;99.90;;;;;;5023053;28;20028;-70
2022/09/12 03:15:27;;;;;;;15.77;11.93;;;7.30;99.90;;;;;;5034235;28;20021;-70
2022/09/12 03:18:18;;;;;;;19.23;11.03;;;7.30;99.90;;;;;;5034590;28;20018;-70
2022/09/12 03:20:59;;;;;;;16.58;10.43;;;7.30;99.90;;;;;;5034015;28;20025;-70
2022/09/12 03:23:28;;;;;;;16.95;12.15;;;7.30;99.90;;;;;;5034464;28;20026;-70
2022/09/12 03:26:08;;;;;;;18.90;11.60;;;7.40;99.90;;;;;;5033315;28;20428;-70
2022/09/12 03:28:35;;;;;;;17.45;12.05;;;7.40;99.90;;;;;;5024492;28;20037;-70
2022/09/12 03:31:14;;;;;;;20.33;12.32;;;7.40;99.90;;;;;;5014281;28;20030;-71
2022/09/12 03:33:40;;;;;;;24.30;12.25;;;7.40;99.90;;;;;;5013589;28;20030;-69
2022/09/12 03:36:13;;;;;;;19.13;11.20;;;7.40;99.90;;;;;;5014042;28;20400;-71
2022/09/12 03:38:38;;;;;;;19.15;10.73;;;7.40;99.90;;;;;;5014325;28;20097;-70
2022/09/12 03:41:04;;;;;;;12.80;10.27;;;7.40;99.90;;;;;;5013659;28;20054;-70
2022/09/12 03:43:30;;;;;;;10.85;9.63;;;7.40;99.90;;;;;;5013421;28;20110;-70
2022/09/12 03:45:55;;;;;;;14.25;10.10;;;7.50;99.90;;;;;;5014182;28;20026;-70
2022/09/12 03:48:21;;;;;;;11.00;9.90;;;7.50;99.90;;;;;;5013828;28;20473;-70
2022/09/12 03:50:46;;;;;;;11.32;10.05;;;7.50;99.90;;;;;;5012022;28;20378;-70
2022/09/12 03:53:12;;;;;;;12.77;11.40;;;7.50;99.90;;;;;;5013684;28;20056;-70
2022/09/12 03:55:40;;;;;;;12.30;9.77;;;7.50;99.90;;;;;;5014050;28;20385;-70
2022/09/12 03:58:06;;;;;;;13.38;11.18;;;7.40;99.90;;;;;;5016232;28;20026;-70
2022/09/12 04:00:32;;;;;;;15.50;11.23;;;7.40;99.90;;;;;;5017193;28;20101;-70
2022/09/12 04:02:57;;;;;;;17.90;10.98;;;7.40;99.90;;;;;;5017903;28;20121;-69
2022/09/12 04:05:24;;;;;;;18.05;12.07;;;7.40;99.90;;;;;;5017669;28;20109;-70
2022/09/12 04:07:50;;;;;;;16.20;11.95;;;7.40;99.90;;;;;;5017906;28;20424;-70
2022/09/12 04:10:16;;;;;;;14.55;11.60;;;7.30;99.90;;;;;;5017484;28;20029;-70
2022/09/12 04:12:42;;;;;;;22.88;12.98;;;7.30;99.90;;;;;;5016976;28;20385;-70
2022/09/12 04:15:08;;;;;;;16.45;12.60;;;7.20;99.90;;;;;;5017966;28;20026;-70
2022/09/12 04:17:34;;;;;;;16.90;11.35;;;7.20;99.90;;;;;;5017507;28;20104;-70
2022/09/12 04:20:00;;;;;;;17.33;13.38;;;7.20;99.90;;;;;;5017403;28;20555;-70
2022/09/12 04:22:25;;;;;;;18.15;12.63;;;7.20;99.90;;;;;;5016860;28;20513;-70
2022/09/12 04:24:51;;;;;;;17.25;13.07;;;7.10;99.90;;;;;;5017253;28;20022;-70
2022/09/12 04:27:17;;;;;;;19.08;12.48;;;7.00;99.90;;;;;;5017250;28;20474;-70
2022/09/12 04:29:42;;;;;;;28.20;14.15;;;7.00;99.90;;;;;;5017308;28;20034;-70
2022/09/12 04:32:08;;;;;;;20.45;14.90;;;7.00;99.90;;;;;;5016588;28;20101;-70
2022/09/12 04:34:34;;;;;;;17.35;13.93;;;7.00;99.90;;;;;;5017272;28;20097;-70
2022/09/12 04:36:59;;;;;;;24.88;14.73;;;7.00;99.90;;;;;;5017351;28;20030;-70
2022/09/12 04:39:25;;;;;;;18.25;14.93;;;7.00;99.90;;;;;;5017079;28;20059;-70
2022/09/12 04:41:50;;;;;;;18.23;15.23;;;7.00;99.90;;;;;;5017301;28;20450;-70
2022/09/12 04:44:16;;;;;;;19.17;15.50;;;7.10;99.90;;;;;;5016439;28;20390;-69
2022/09/12 04:46:44;;;;;;;18.67;15.55;;;7.10;99.90;;;;;;5032062;28;20121;-70
2022/09/12 04:49:11;;;;;;;22.48;16.17;;;7.20;99.90;;;;;;5016734;28;20065;-70
2022/09/12 04:51:38;;;;;;;17.92;14.65;;;7.20;99.90;;;;;;5016951;28;20152;-70
2022/09/12 04:54:07;;;;;;;18.52;15.13;;;7.30;99.90;;;;;;5016951;28;20469;-70
2022/09/12 04:56:39;;;;;;;21.33;16.17;;;7.20;99.90;;;;;;5016606;28;20114;-69
2022/09/12 04:59:05;;;;;;;18.10;14.75;;;7.30;99.90;;;;;;5016821;28;20026;-70
2022/09/12 05:01:31;;;;;;;21.27;15.50;;;7.30;99.90;;;;;;5018788;28;20022;-69
2022/09/12 05:03:58;;;;;;;18.65;14.80;;;7.40;99.90;;;;;;5028278;28;20026;-70
2022/09/12 05:06:27;;;;;;;21.17;15.30;;;7.40;99.90;;;;;;5016129;28;20032;-69
2022/09/12 05:08:53;;;;;;;22.23;16.25;;;7.40;99.90;;;;;;5015630;28;20044;-69
2022/09/12 05:11:21;;;;;;;19.08;15.73;;;7.40;99.90;;;;;;5016322;28;20102;-68
2022/09/12 05:13:47;;;;;;;20.98;16.27;;;7.50;99.90;;;;;;5016585;28;20105;-70
2022/09/12 05:16:14;;;;;;;21.30;15.90;;;7.60;99.90;;;;;;5016494;28;20053;-70
2022/09/12 05:18:40;;;;;;;24.45;17.88;;;7.60;99.90;;;;;;5015961;28;20109;-70
2022/09/12 05:21:09;;;;;;;21.77;15.98;;;7.60;99.90;;;;;;5016248;28;20033;-70
2022/09/12 05:23:35;;;;;;;25.73;17.30;;;7.70;99.90;;;;;;5016344;28;20033;-69
2022/09/12 05:26:02;;;;;;;26.33;17.75;;;7.80;99.90;;;;;;5016238;28;20030;-70
2022/09/12 05:28:33;;;;;;;24.35;17.77;;;7.90;99.90;;;;;;5016686;28;20112;-69
2022/09/12 05:31:03;;;;;;;22.15;16.75;;;7.90;99.90;;;;;;5016701;28;20038;-69
2022/09/12 05:33:30;;;;;;;29.08;18.77;;;8.00;99.90;;;;;;5015514;28;20512;-70
2022/09/12 05:35:55;;;;;;;25.60;19.92;;;8.10;99.90;;;;;;5016241;28;20402;-70
2022/09/12 05:38:23;;;;;;;28.05;19.95;;;8.20;99.90;;;;;;5015966;28;20022;-70
2022/09/12 05:40:50;;;;;;;26.50;19.83;;;8.30;99.90;;;;;;5015208;28;20022;-70
2022/09/12 05:43:15;;;;;;;29.50;19.08;;;8.40;99.90;;;;;;5015865;28;20109;-70
2022/09/12 05:45:41;;;;;;;28.25;18.63;;;8.50;99.90;;;;;;5015976;28;20116;-70
2022/09/12 05:48:07;;;;;;;25.75;18.55;;;8.60;99.90;;;;;;5015964;28;20053;-70
2022/09/12 05:50:32;;;;;;;28.00;18.17;;;8.70;99.90;;;;;;5015859;28;20053;-70
2022/09/12 05:52:58;;;;;;;25.77;18.25;;;8.80;99.90;;;;;;5015075;28;20022;-69
2022/09/12 05:55:24;;;;;;;23.88;18.13;;;8.90;99.90;;;;;;5015388;28;20106;-70
2022/09/12 05:57:50;;;;;;;24.35;18.50;;;9.10;99.90;;;;;;5015675;28;20026;-70
2022/09/12 06:00:16;;;;;;;24.35;17.05;;;9.20;99.90;;;;;;5015574;28;20089;-70
2022/09/12 06:02:42;;;;;;;21.20;16.00;;;9.30;99.90;;;;;;5015837;28;20033;-70
2022/09/12 06:05:07;;;;;;;23.20;17.38;;;9.50;99.90;;;;;;5015681;28;20556;-70
2022/09/12 06:07:34;;;;;;;22.83;16.55;;;9.60;99.90;;;;;;5015134;28;20489;-70
2022/09/12 06:10:00;;;;;;;27.70;18.98;;;9.80;99.90;;;;;;5015646;28;20025;-70
2022/09/12 06:12:28;;;;;;;22.73;17.25;;;10.00;99.90;;;;;;5015629;28;20393;-70
2022/09/12 06:14:54;;;;;;;21.98;17.08;;;10.20;99.90;;;;;;5015293;28;20022;-70
2022/09/12 06:17:21;;;;;;;23.85;17.58;;;10.40;99.90;;;;;;5015212;28;20032;-70
2022/09/12 06:19:46;;;;;;;22.73;16.90;;;10.60;99.90;;;;;;5014395;28;20014;-70
2022/09/12 06:22:13;;;;;;;27.70;18.90;;;10.80;99.90;;;;;;5015334;28;20124;-70
2022/09/12 06:24:38;;;;;;;22.90;17.08;;;11.00;99.90;;;;;;5015230;28;20064;-69
2022/09/12 06:27:04;;;;;;;29.27;18.67;;;11.20;99.90;;;;;;5014583;28;20030;-70
2022/09/12 06:29:31;;;;;;;24.63;19.02;;;11.40;99.90;;;;;;5015061;28;20042;-70
2022/09/12 06:31:57;;;;;;;26.95;18.70;;;11.60;99.90;;;;;;5014968;28;20029;-70
2022/09/12 06:34:23;;;;;;;29.13;20.05;;;11.80;99.90;;;;;;5014871;28;20030;-70
2022/09/12 06:36:49;;;;;;;20.90;16.17;;;12.00;99.90;;;;;;5015647;28;20514;-69
2022/09/12 06:39:17;;;;;;;22.75;17.88;;;12.10;99.90;;;;;;5014123;28;20026;-70
2022/09/12 06:41:43;;;;;;;24.60;18.08;;;12.30;99.90;;;;;;5015037;28;20019;-70
2022/09/12 06:44:14;;;;;;;22.48;18.73;;;12.40;99.90;;;;;;5014914;28;20025;-70
2022/09/12 06:46:40;;;;;;;28.67;18.08;;;12.60;99.90;;;;;;5014953;28;20073;-70
2022/09/12 06:49:07;;;;;;;21.52;17.45;;;12.80;99.90;;;;;;5014548;28;20049;-70
2022/09/12 06:51:35;;;;;;;22.10;17.73;;;13.00;99.90;;;;;;5015206;28;20029;-70
2022/09/12 06:54:01;;;;;;;27.58;18.40;;;13.10;99.90;;;;;;5014713;28;20022;-70
2022/09/12 06:56:27;;;;;;;21.65;17.40;;;13.30;99.90;;;;;;5014831;28;20100;-70
2022/09/12 06:58:55;;;;;;;19.50;15.35;;;13.40;99.90;;;;;;5014203;28;20018;-69
2022/09/12 07:01:26;;;;;;;19.55;16.42;;;13.50;99.90;;;;;;5014546;28;20022;-70
2022/09/12 07:03:55;;;;;;;21.38;16.55;;;13.70;99.90;;;;;;5014709;28;20041;-70
2022/09/12 07:06:23;;;;;;;17.95;14.10;;;13.80;99.90;;;;;;5013273;28;20474;-70
2022/09/12 07:08:49;;;;;;;20.33;16.67;;;14.00;99.90;;;;;;5014532;28;20025;-70
2022/09/12 07:11:20;;;;;;;22.30;18.25;;;14.00;99.90;;;;;;5014449;28;20384;-70
2022/09/12 07:13:48;;;;;;;23.67;18.63;;;14.10;99.90;;;;;;5013714;28;20109;-69
2022/09/12 07:16:14;;;;;;;22.80;15.23;;;14.30;99.90;;;;;;5014382;28;20030;-70
2022/09/12 07:18:40;;;;;;;22.60;18.42;;;14.40;99.90;;;;;;5014243;28;20069;-70
2022/09/12 07:21:09;;;;;;;21.88;16.08;;;14.40;99.90;;;;;;5014349;28;20052;-71
2022/09/12 07:23:35;;;;;;;19.73;16.27;;;14.50;99.90;;;;;;5013662;28;20105;-70
2022/09/12 07:26:01;;;;;;;22.05;17.00;;;14.60;99.90;;;;;;5014316;28;20466;-70
2022/09/12 07:28:29;;;;;;;19.90;16.98;;;14.60;99.90;;;;;;5014402;28;20460;-70
2022/09/12 07:30:55;;;;;;;19.58;16.70;;;14.70;99.90;;;;;;5014094;28;20022;-70
2022/09/12 07:33:27;;;;;;;25.10;17.05;;;14.70;99.90;;;;;;5013885;28;20025;-70
2022/09/12 07:35:53;;;;;;;20.00;17.90;;;14.80;99.90;;;;;;5014381;28;20053;-70
2022/09/12 07:38:20;;;;;;;20.75;15.70;;;14.80;99.90;;;;;;5013505;28;20050;-70
2022/09/12 07:40:45;;;;;;;23.33;16.85;;;14.90;99.90;;;;;;5013940;28;20038;-70
2022/09/12 07:43:11;;;;;;;20.65;16.67;;;14.90;99.90;;;;;;5014138;28;20032;-70
2022/09/12 07:45:40;;;;;;;17.75;15.80;;;15.00;99.90;;;;;;5014395;28;20030;-71
2022/09/12 07:48:06;;;;;;;16.58;14.73;;;15.10;99.90;;;;;;5013568;28;20026;-70
2022/09/12 07:50:32;;;;;;;15.52;13.57;;;15.40;99.90;;;;;;5013749;28;20064;-70
2022/09/12 07:52:58;;;;;;;18.60;15.75;;;15.60;99.90;;;;;;5014243;28;20458;-70
2022/09/12 07:55:23;;;;;;;25.02;18.65;;;15.70;99.90;;;;;;5015195;28;20026;-70
2022/09/12 07:57:53;;;;;;;22.00;16.77;;;15.60;99.90;;;;;;5014418;28;20025;-70
2022/09/12 08:00:18;;;;;;;18.70;16.70;;;15.60;99.90;;;;;;5013432;28;20018;-70
2022/09/12 08:02:44;;;;;;;16.85;14.60;;;15.70;99.90;;;;;;5013749;28;20029;-70
2022/09/12 08:05:10;;;;;;;33.38;15.63;;;15.90;99.90;;;;;;5013809;28;20385;-70
2022/09/12 08:07:35;;;;;;;18.25;16.23;;;16.00;99.90;;;;;;5014564;28;20450;-70
2022/09/12 08:10:01;;;;;;;19.02;14.93;;;16.10;99.90;;;;;;5013272;28;20052;-70
2022/09/12 08:12:27;;;;;;;24.48;15.07;;;16.20;99.90;;;;;;5013846;28;20037;-70
2022/09/12 08:14:53;;;;;;;19.67;14.30;;;16.40;99.90;;;;;;5014069;28;20026;-70
2022/09/12 08:17:19;;;;;;;17.27;13.15;;;16.40;99.90;;;;;;5013864;28;20075;-71
2022/09/12 08:19:45;;;;;;;17.50;14.23;;;16.70;99.90;;;;;;5013222;28;20381;-70
2022/09/12 08:22:10;;;;;;;26.25;13.95;;;16.70;99.90;;;;;;5013758;28;20014;-70
2022/09/12 08:24:38;;;;;;;17.00;14.40;;;16.70;99.90;;;;;;5013907;28;20033;-70
2022/09/12 08:27:04;;;;;;;20.35;13.38;;;16.80;99.90;;;;;;5013936;28;20022;-70
2022/09/12 08:29:30;;;;;;;15.38;12.77;;;16.90;99.90;;;;;;5013773;28;20041;-70
2022/09/12 08:31:55;;;;;;;17.75;13.23;;;16.90;99.90;;;;;;5013199;28;20030;-70
2022/09/12 08:34:21;;;;;;;16.30;14.00;;;17.30;99.90;;;;;;5013853;28;20204;-70
2022/09/12 08:36:47;;;;;;;16.27;11.73;;;17.40;99.90;;;;;;5013481;28;20064;-70
2022/09/12 08:39:13;;;;;;;20.52;12.45;;;17.60;99.90;;;;;;5013277;28;20392;-71
2022/09/12 08:41:45;;;;;;;13.73;11.15;;;17.50;99.90;;;;;;5013451;28;20022;-70
2022/09/12 08:44:38;;;;;;;13.00;11.30;;;17.70;99.90;;;;;;5016193;28;20391;-71
2022/09/12 08:47:30;;;;;;;18.50;12.73;;;18.00;99.90;;;;;;5017608;28;20056;-70
2022/09/12 08:50:11;;;;;;;14.68;11.20;;;18.10;99.90;;;;;;5017015;28;20034;-70
2022/09/12 08:53:01;;;;;;;16.13;11.45;;;18.20;99.90;;;;;;5016509;28;20037;-69
2022/09/12 08:55:34;;;;;;;17.38;11.77;;;18.50;99.90;;;;;;5017002;28;20018;-70
2022/09/12 08:58:13;;;;;;;13.98;10.13;;;18.60;99.90;;;;;;5021252;28;20029;-69
2022/09/12 09:01:16;;;;;;;10.95;9.45;;;18.70;99.90;;;;;;5036410;28;20060;-70
2022/09/12 09:03:50;;;;;;;11.52;9.25;;;19.00;99.90;;;;;;5036440;28;20029;-70
2022/09/12 09:06:41;;;;;;;12.98;10.10;;;19.10;99.90;;;;;;5035785;28;20043;-71
2022/09/12 09:09:30;;;;;;;11.70;8.93;;;19.10;99.90;;;;;;5036195;28;20048;-70
2022/09/12 09:12:14;;;;;;;9.20;7.38;;;19.00;99.90;;;;;;5036565;28;20052;-70
2022/09/12 09:14:49;;;;;;;11.25;8.52;;;19.10;99.90;;;;;;5031478;28;20033;-69
2022/09/12 09:17:37;;;;;;;9.02;6.35;;;19.30;99.90;;;;;;5036375;28;20018;-69
2022/09/12 09:20:22;;;;;;;9.82;7.70;;;19.50;99.90;;;;;;5029499;28;20173;-69
2022/09/12 09:22:59;;;;;;;7.47;6.63;;;19.70;99.90;;;;;;5016289;28;20026;-69
2022/09/12 09:25:35;;;;;;;6.53;5.68;;;19.70;99.90;;;;;;5015628;28;20033;-70
2022/09/12 09:28:06;;;;;;;10.75;6.53;;;19.80;99.90;;;;;;5016439;28;20034;-70
2022/09/12 09:30:34;;;;;;;7.78;5.82;;;19.80;99.90;;;;;;5016359;28;20018;-70
2022/09/12 09:33:03;;;;;;;9.93;6.00;;;19.90;99.90;;;;;;5015786;28;20430;-71
2022/09/12 09:35:42;;;;;;;9.15;5.35;;;19.90;99.90;;;;;;5016151;28;20514;-70
2022/09/12 09:38:47;;;;;;;6.35;5.20;;;19.80;99.90;;;;;;5015930;28;20072;-70
2022/09/12 09:41:29;;;;;;;12.50;6.30;;;19.80;99.90;;;;;;5015665;28;20033;-70
2022/09/12 09:43:56;;;;;;;5.32;4.22;;;19.50;99.90;;;;;;5016120;28;20072;-70
2022/09/12 09:46:22;;;;;;;10.50;6.03;;;19.40;99.90;;;;;;5016077;28;20436;-70
2022/09/12 09:48:50;;;;;;;6.88;5.65;;;19.40;99.90;;;;;;5015999;28;20026;-70
2022/09/12 09:51:23;;;;;;;9.82;5.78;;;19.30;99.90;;;;;;5015103;28;20501;-69
2022/09/12 09:53:59;;;;;;;5.85;5.18;;;19.40;99.90;;;;;;5015848;28;20096;-70
2022/09/12 09:56:39;;;;;;;6.93;5.22;;;19.50;99.90;;;;;;5015659;28;20030;-70
2022/09/12 09:59:14;;;;;;;9.40;5.25;;;19.70;99.90;;;;;;5014860;28;20367;-70
2022/09/12 10:01:50;;;;;;;6.57;5.75;;;19.60;99.90;;;;;;5014238;28;20057;-70
2022/09/12 10:04:22;;;;;;;7.22;6.53;;;19.60;99.90;;;;;;5015726;28;20026;-70
2022/09/12 10:06:55;;;;;;;7.47;6.57;;;19.70;99.90;;;;;;5015474;28;20030;-70
2022/09/12 10:09:33;;;;;;;7.78;6.03;;;19.70;99.90;;;;;;5015619;28;20026;-70
2022/09/12 10:12:01;;;;;;;6.97;6.07;;;19.80;99.90;;;;;;5015476;28;20359;-70
2022/09/12 10:14:38;;;;;;;8.15;6.28;;;19.90;99.90;;;;;;5014998;28;20080;-70
2022/09/12 10:17:27;;;;;;;11.00;5.78;;;20.00;99.90;;;;;;5015430;28;20481;-70
2022/09/12 10:19:53;;;;;;;6.63;5.22;;;19.90;99.90;;;;;;5016297;28;20057;-70
2022/09/12 10:22:22;;;;;;;9.45;5.50;;;19.70;99.90;;;;;;5015294;28;20021;-69
2022/09/12 10:24:52;;;;;;;6.88;5.38;;;19.70;99.90;;;;;;5015053;28;20079;-69
2022/09/12 10:27:19;;;;;;;6.05;4.95;;;19.80;99.90;;;;;;5014912;28;20024;-69
2022/09/12 10:29:50;;;;;;;11.93;4.57;;;19.80;99.90;;;;;;5014771;28;20026;-70
2022/09/12 10:32:35;;;;;;;5.50;4.40;;;20.10;99.90;;;;;;5014524;28;20517;-70
2022/09/12 10:35:17;;;;;;;8.07;4.57;;;20.20;99.90;;;;;;5015052;28;20430;-70
2022/09/12 10:37:57;;;;;;;9.95;4.22;;;20.20;99.90;;;;;;5015003;28;20033;-70
2022/09/12 10:40:28;;;;;;;4.90;4.15;;;20.10;99.90;;;;;;5014605;28;20026;-69
2022/09/12 10:42:58;;;;;;;5.53;4.57;;;20.20;99.90;;;;;;5014695;28;20034;-70
2022/09/12 10:45:28;;;;;;;4.53;4.13;;;20.20;99.90;;;;;;5014150;28;20473;-69
2022/09/12 10:47:57;;;;;;;5.25;4.28;;;20.10;99.90;;;;;;5014794;28;20030;-70
2022/09/12 10:50:34;;;;;;;6.07;4.07;;;20.20;99.90;;;;;;5014517;28;20025;-70
2022/09/12 10:53:20;;;;;;;8.98;3.78;;;20.10;99.90;;;;;;5014569;28;20030;-71
2022/09/12 10:55:58;;;;;;;5.78;4.10;;;20.20;99.90;;;;;;5014784;28;20378;-70
2022/09/12 10:59:03;;;;;;;5.53;3.38;;;20.20;99.90;;;;;;5014118;28;20026;-71
2022/09/12 11:01:31;;;;;;;6.75;3.88;;;20.10;99.90;;;;;;4997391;28;20037;-71
2022/09/12 11:04:42;;;;;;;4.80;3.47;;;20.20;99.90;;;;;;5014759;28;20025;-71
2022/09/12 11:07:35;;;;;;;4.03;2.83;;;20.10;99.90;;;;;;4999187;28;20088;-71
2022/09/12 11:10:12;;;;;;;7.43;3.97;;;20.40;99.90;;;;;;5014354;28;20079;-72
2022/09/12 11:13:09;;;;;;;4.82;3.33;;;20.50;99.90;;;;;;5013694;28;20736;-71
2022/09/12 11:16:18;;;;;;;7.35;3.40;;;20.70;99.90;;;;;;5014380;28;20037;-71
2022/09/12 11:19:02;;;;;;;5.00;2.85;;;20.80;99.90;;;;;;4951906;28;20033;-71
2022/09/12 11:21:33;;;;;;;;;;;20.90;99.90;;;;;;5014377;28;20053;-70
2022/09/12 11:24:25;;;;;;;4.57;3.33;;;20.50;99.90;;;;;;5013657;28;19912;-70
2022/09/12 11:27:21;;;;;;;6.88;3.72;;;20.30;99.90;;;;;;5014196;28;20528;-69
2022/09/12 11:29:52;;;;;;;6.05;3.65;;;20.20;99.90;;;;;;5014356;28;20026;-70
2022/09/12 11:32:45;;;;;;;12.30;4.18;;;20.10;99.90;;;;;;5014073;28;20064;-68
2022/09/12 11:35:19;;;;;;;6.68;3.10;;;20.20;99.90;;;;;;5014207;28;20029;-70
2022/09/12 11:38:02;;;;;;;4.28;2.78;;;20.10;99.90;;;;;;5013798;28;20060;-70
2022/09/12 11:40:55;;;;;;;10.48;3.95;;;20.20;99.90;;;;;;5013281;28;20037;-70
2022/09/12 11:43:58;;;;;;;5.15;3.90;;;20.30;99.90;;;;;;5014090;28;20032;-70
2022/09/12 11:46:38;;;;;;;5.13;4.15;;;20.20;99.90;;;;;;5013697;28;20466;-70
2022/09/12 11:49:13;;;;;;;9.27;3.63;;;20.00;99.90;;;;;;5013080;28;20083;-69
2022/09/12 11:51:52;;;;;;;8.43;3.55;;;20.20;99.90;;;;;;5014275;28;20026;-70
2022/09/12 11:54:37;;;;;;;10.70;4.57;;;20.50;99.90;;;;;;5013756;28;20022;-70
2022/09/12 11:57:24;;;;;;;9.68;4.32;;;20.70;99.90;;;;;;5013465;28;20029;-70
2022/09/12 12:00:04;;;;;;;6.65;3.97;;;20.70;99.90;;;;;;5013510;28;20029;-70
2022/09/12 12:02:40;;;;;;;9.07;4.60;;;20.80;99.90;;;;;;5013082;28;20073;-70
2022/09/12 12:05:30;;;;;;;6.75;4.47;;;20.80;99.90;;;;;;5013838;28;20045;-70
2022/09/12 12:07:58;;;;;;;9.27;5.07;;;21.20;99.90;;;;;;5014043;28;20022;-71
2022/09/12 12:10:50;;;;;;;9.30;5.18;;;21.40;99.90;;;;;;5013774;28;20018;-71
2022/09/12 12:13:18;;;;;;;12.77;5.65;;;21.60;99.90;;;;;;5013679;28;20470;-70
2022/09/12 12:15:48;;;;;;;8.90;5.60;;;21.30;99.90;;;;;;5013003;28;20053;-71
2022/09/12 12:18:22;;;;;;;11.65;7.38;;;21.50;99.90;;;;;;5014435;28;20472;-71
2022/09/12 12:20:48;;;;;;;;;;;21.60;99.90;;;;;;5017632;28;20072;-71
2022/09/12 12:23:34;;;;;;;13.75;7.13;;;21.50;99.90;;;;;;5017268;28;19906;-70
2022/09/12 12:26:04;;;;;;;14.15;7.57;;;21.50;99.90;;;;;;5017696;28;20370;-71
2022/09/12 12:28:50;;;;;;;8.25;7.00;;;21.50;99.90;;;;;;5017056;28;20474;-70
2022/09/12 12:31:16;;;;;;;13.50;7.63;;;21.80;99.90;;;;;;5006263;28;20038;-71
2022/09/12 12:33:45;;;;;;;13.05;8.18;;;22.00;99.90;;;;;;5016837;28;20521;-71
2022/09/12 12:36:35;;;;;;;13.45;8.60;;;22.20;99.90;;;;;;5016962;28;20034;-71
2022/09/12 12:39:31;;;;;;;11.07;8.35;;;22.10;99.90;;;;;;5016195;28;20466;-71
2022/09/12 12:42:01;;;;;;;12.30;8.05;;;21.90;99.90;;;;;;5017002;28;20040;-71
2022/09/12 12:44:46;;;;;;;11.43;8.50;;;22.00;99.90;;;;;;5017309;28;20084;-71
2022/09/12 12:47:33;;;;;;;18.02;10.10;;;21.80;99.90;;;;;;5017246;28;20478;-71
2022/09/12 12:50:03;;;;;;;13.70;9.93;;;21.60;99.90;;;;;;5016640;28;20022;-71
2022/09/12 12:52:32;;;;;;;18.27;11.00;;;21.50;99.90;;;;;;5016186;28;20132;-71
2022/09/12 12:55:00;;;;;;;12.32;9.45;;;21.50;99.90;;;;;;5016509;28;20075;-71
2022/09/12 12:57:33;;;;;;;15.75;9.65;;;21.60;99.90;;;;;;5016690;28;20025;-71
2022/09/12 13:00:07;;;;;;;12.70;9.93;;;21.50;99.90;;;;;;5016645;28;20475;-71
2022/09/12 13:02:40;;;;;;;14.50;9.52;;;21.60;99.90;;;;;;5016669;28;20484;-70
2022/09/12 13:05:17;;;;;;;12.27;8.75;;;21.80;99.90;;;;;;5015951;28;20386;-71